Airport View

Enter AWOS ICAO identifier for current METAR.

ex. KFNL

KHUT 210452Z AUTO 08007KT 10SM CLR 08/02 A3036 RMK AO2 SLP272 T00780022

21 Oct 2018 05:59

Phone: 620-662-1071

Other Area AWOS: KEWK - KICT - KAAO - KBEC

TAF KHUT 202335Z 2100/2124 04006KT P6SM SKC FM210600 11005KT P6SM SKC FM211200 15007KT P6SM SKC FM211700 19014G20KT P6SM SKC